sensor_id;sensor_type;location;lat;lon;timestamp;temperature;humidity
36374;DHT22;22399;51.346;12.372;2023-02-15T00:00:08;2.40;99.90
36374;DHT22;22399;51.346;12.372;2023-02-15T00:02:38;2.40;99.90
36374;DHT22;22399;51.346;12.372;2023-02-15T00:05:07;2.40;99.90
36374;DHT22;22399;51.346;12.372;2023-02-15T00:07:36;2.50;99.90
36374;DHT22;22399;51.346;12.372;2023-02-15T00:10:07;2.50;99.90
36374;DHT22;22399;51.346;12.372;2023-02-15T00:12:36;2.40;99.90
36374;DHT22;22399;51.346;12.372;2023-02-15T00:15:04;2.40;99.90
36374;DHT22;22399;51.346;12.372;2023-02-15T00:17:33;2.40;99.90
36374;DHT22;22399;51.346;12.372;2023-02-15T00:20:01;2.40;99.90
36374;DHT22;22399;51.346;12.372;2023-02-15T00:22:30;2.40;99.90
36374;DHT22;22399;51.346;12.372;2023-02-15T00:24:58;2.40;99.90
36374;DHT22;22399;51.346;12.372;2023-02-15T00:27:28;2.50;99.90
36374;DHT22;22399;51.346;12.372;2023-02-15T00:29:57;2.50;99.90
36374;DHT22;22399;51.346;12.372;2023-02-15T00:32:25;2.40;99.90
36374;DHT22;22399;51.346;12.372;2023-02-15T00:34:53;2.40;99.90
36374;DHT22;22399;51.346;12.372;2023-02-15T00:37:23;2.40;99.90
36374;DHT22;22399;51.346;12.372;2023-02-15T00:39:52;2.40;99.90
36374;DHT22;22399;51.346;12.372;2023-02-15T00:42:20;2.40;99.90
36374;DHT22;22399;51.346;12.372;2023-02-15T00:44:49;2.40;99.90
36374;DHT22;22399;51.346;12.372;2023-02-15T00:47:20;2.50;99.90
36374;DHT22;22399;51.346;12.372;2023-02-15T00:49:48;2.50;99.90
36374;DHT22;22399;51.346;12.372;2023-02-15T00:52:17;2.50;99.90
36374;DHT22;22399;51.346;12.372;2023-02-15T00:54:45;2.60;99.90
36374;DHT22;22399;51.346;12.372;2023-02-15T00:57:14;2.50;99.90
36374;DHT22;22399;51.346;12.372;2023-02-15T00:59:42;2.50;99.90
36374;DHT22;22399;51.346;12.372;2023-02-15T01:02:14;2.50;99.90
36374;DHT22;22399;51.346;12.372;2023-02-15T01:04:42;2.50;99.90
36374;DHT22;22399;51.346;12.372;2023-02-15T01:07:11;2.40;99.90
36374;DHT22;22399;51.346;12.372;2023-02-15T01:09:39;2.40;99.90
36374;DHT22;22399;51.346;12.372;2023-02-15T01:12:08;2.40;99.90
36374;DHT22;22399;51.346;12.372;2023-02-15T01:14:36;2.40;99.90
36374;DHT22;22399;51.346;12.372;2023-02-15T01:17:04;2.40;99.90
36374;DHT22;22399;51.346;12.372;2023-02-15T01:19:36;2.30;99.90
36374;DHT22;22399;51.346;12.372;2023-02-15T01:22:12;2.30;99.90
36374;DHT22;22399;51.346;12.372;2023-02-15T01:24:40;2.30;99.90
36374;DHT22;22399;51.346;12.372;2023-02-15T01:27:09;2.30;99.90
36374;DHT22;22399;51.346;12.372;2023-02-15T01:29:37;2.30;99.90
36374;DHT22;22399;51.346;12.372;2023-02-15T01:32:06;2.30;99.90
36374;DHT22;22399;51.346;12.372;2023-02-15T01:34:36;2.30;99.90
36374;DHT22;22399;51.346;12.372;2023-02-15T01:37:04;2.20;99.90
36374;DHT22;22399;51.346;12.372;2023-02-15T01:39:34;2.20;99.90
36374;DHT22;22399;51.346;12.372;2023-02-15T01:42:03;2.20;99.90
36374;DHT22;22399;51.346;12.372;2023-02-15T01:44:47;2.20;99.90
36374;DHT22;22399;51.346;12.372;2023-02-15T01:47:19;2.20;99.90
36374;DHT22;22399;51.346;12.372;2023-02-15T01:49:54;2.10;99.90
36374;DHT22;22399;51.346;12.372;2023-02-15T01:52:26;2.10;99.90
36374;DHT22;22399;51.346;12.372;2023-02-15T01:54:54;2.10;99.90
36374;DHT22;22399;51.346;12.372;2023-02-15T01:57:24;2.10;99.90
36374;DHT22;22399;51.346;12.372;2023-02-15T01:59:56;2.10;99.90
36374;DHT22;22399;51.346;12.372;2023-02-15T02:02:38;2.00;99.90
36374;DHT22;22399;51.346;12.372;2023-02-15T02:05:09;2.00;99.90
36374;DHT22;22399;51.346;12.372;2023-02-15T02:07:40;2.00;99.90
36374;DHT22;22399;51.346;12.372;2023-02-15T02:10:11;2.00;99.90
36374;DHT22;22399;51.346;12.372;2023-02-15T02:12:40;1.90;99.90
36374;DHT22;22399;51.346;12.372;2023-02-15T02:15:10;1.90;99.90
36374;DHT22;22399;51.346;12.372;2023-02-15T02:17:47;1.90;99.90
36374;DHT22;22399;51.346;12.372;2023-02-15T02:20:30;1.90;99.90
36374;DHT22;22399;51.346;12.372;2023-02-15T02:23:19;1.90;99.90
36374;DHT22;22399;51.346;12.372;2023-02-15T02:35:25;1.80;99.90
36374;DHT22;22399;51.346;12.372;2023-02-15T02:38:03;1.80;99.90
36374;DHT22;22399;51.346;12.372;2023-02-15T02:40:44;1.80;99.90
36374;DHT22;22399;51.346;12.372;2023-02-15T02:43:20;1.80;99.90
36374;DHT22;22399;51.346;12.372;2023-02-15T02:45:54;1.80;99.90
36374;DHT22;22399;51.346;12.372;2023-02-15T02:48:27;1.80;99.90
36374;DHT22;22399;51.346;12.372;2023-02-15T02:50:59;1.80;99.90
36374;DHT22;22399;51.346;12.372;2023-02-15T02:53:30;1.80;99.90
36374;DHT22;22399;51.346;12.372;2023-02-15T02:56:03;1.80;99.90
36374;DHT22;22399;51.346;12.372;2023-02-15T02:58:38;1.80;99.90
36374;DHT22;22399;51.346;12.372;2023-02-15T03:01:12;1.80;99.90
36374;DHT22;22399;51.346;12.372;2023-02-15T03:03:44;1.80;99.90
36374;DHT22;22399;51.346;12.372;2023-02-15T03:06:19;1.80;99.90
36374;DHT22;22399;51.346;12.372;2023-02-15T03:08:51;1.80;99.90
36374;DHT22;22399;51.346;12.372;2023-02-15T03:11:22;1.90;99.90
36374;DHT22;22399;51.346;12.372;2023-02-15T03:13:51;1.90;99.90
36374;DHT22;22399;51.346;12.372;2023-02-15T03:16:20;1.90;99.90
36374;DHT22;22399;51.346;12.372;2023-02-15T03:18:58;1.80;99.90
36374;DHT22;22399;51.346;12.372;2023-02-15T03:21:34;1.80;99.90
36374;DHT22;22399;51.346;12.372;2023-02-15T03:24:09;1.80;99.90
36374;DHT22;22399;51.346;12.372;2023-02-15T03:26:39;1.80;99.90
36374;DHT22;22399;51.346;12.372;2023-02-15T03:29:08;1.80;99.90
36374;DHT22;22399;51.346;12.372;2023-02-15T03:31:41;1.80;99.90
36374;DHT22;22399;51.346;12.372;2023-02-15T03:34:12;1.80;99.90
36374;DHT22;22399;51.346;12.372;2023-02-15T03:36:45;1.80;99.90
36374;DHT22;22399;51.346;12.372;2023-02-15T03:39:19;1.80;99.90
36374;DHT22;22399;51.346;12.372;2023-02-15T03:41:55;1.70;99.90
36374;DHT22;22399;51.346;12.372;2023-02-15T03:44:28;1.70;99.90
36374;DHT22;22399;51.346;12.372;2023-02-15T03:47:02;1.70;99.90
36374;DHT22;22399;51.346;12.372;2023-02-15T03:49:39;1.70;99.90
36374;DHT22;22399;51.346;12.372;2023-02-15T03:52:13;1.60;99.90
36374;DHT22;22399;51.346;12.372;2023-02-15T03:54:43;1.60;99.90
36374;DHT22;22399;51.346;12.372;2023-02-15T03:57:18;1.60;99.90
36374;DHT22;22399;51.346;12.372;2023-02-15T04:00:09;1.60;99.90
36374;DHT22;22399;51.346;12.372;2023-02-15T04:03:22;1.50;99.90
36374;DHT22;22399;51.346;12.372;2023-02-15T04:05:51;1.60;99.90
36374;DHT22;22399;51.346;12.372;2023-02-15T04:08:21;1.60;99.90
36374;DHT22;22399;51.346;12.372;2023-02-15T04:11:10;1.60;99.90
36374;DHT22;22399;51.346;12.372;2023-02-15T04:13:37;1.60;99.90
36374;DHT22;22399;51.346;12.372;2023-02-15T04:16:05;1.60;99.90
36374;DHT22;22399;51.346;12.372;2023-02-15T04:18:39;1.50;99.90
36374;DHT22;22399;51.346;12.372;2023-02-15T04:21:27;1.60;99.90
36374;DHT22;22399;51.346;12.372;2023-02-15T04:24:14;1.50;99.90
36374;DHT22;22399;51.346;12.372;2023-02-15T04:27:00;1.50;99.90
36374;DHT22;22399;51.346;12.372;2023-02-15T04:29:30;1.50;99.90
36374;DHT22;22399;51.346;12.372;2023-02-15T04:32:00;1.50;99.90
36374;DHT22;22399;51.346;12.372;2023-02-15T04:34:29;1.40;99.90
36374;DHT22;22399;51.346;12.372;2023-02-15T04:36:57;1.30;99.90
36374;DHT22;22399;51.346;12.372;2023-02-15T04:39:27;1.30;99.90
36374;DHT22;22399;51.346;12.372;2023-02-15T04:41:56;1.40;99.90
36374;DHT22;22399;51.346;12.372;2023-02-15T04:44:24;1.40;99.90
36374;DHT22;22399;51.346;12.372;2023-02-15T04:46:52;1.40;99.90
36374;DHT22;22399;51.346;12.372;2023-02-15T04:49:21;1.40;99.90
36374;DHT22;22399;51.346;12.372;2023-02-15T04:51:50;1.40;99.90
36374;DHT22;22399;51.346;12.372;2023-02-15T04:54:18;1.40;99.90
36374;DHT22;22399;51.346;12.372;2023-02-15T04:56:48;1.40;99.90
36374;DHT22;22399;51.346;12.372;2023-02-15T04:59:16;1.40;99.90
36374;DHT22;22399;51.346;12.372;2023-02-15T05:01:45;1.40;99.90
36374;DHT22;22399;51.346;12.372;2023-02-15T05:04:13;1.30;99.90
36374;DHT22;22399;51.346;12.372;2023-02-15T05:06:42;1.30;99.90
36374;DHT22;22399;51.346;12.372;2023-02-15T05:09:11;1.30;99.90
36374;DHT22;22399;51.346;12.372;2023-02-15T05:11:39;1.30;99.90
36374;DHT22;22399;51.346;12.372;2023-02-15T05:14:09;1.30;99.90
36374;DHT22;22399;51.346;12.372;2023-02-15T05:16:37;1.30;99.90
36374;DHT22;22399;51.346;12.372;2023-02-15T05:19:06;1.30;99.90
36374;DHT22;22399;51.346;12.372;2023-02-15T05:21:34;1.20;99.90
36374;DHT22;22399;51.346;12.372;2023-02-15T05:24:03;1.20;99.90
36374;DHT22;22399;51.346;12.372;2023-02-15T05:26:51;1.20;99.90
36374;DHT22;22399;51.346;12.372;2023-02-15T05:29:38;1.20;99.90
36374;DHT22;22399;51.346;12.372;2023-02-15T05:32:07;1.10;99.90
36374;DHT22;22399;51.346;12.372;2023-02-15T05:34:35;1.10;99.90
36374;DHT22;22399;51.346;12.372;2023-02-15T05:37:03;1.00;99.90
36374;DHT22;22399;51.346;12.372;2023-02-15T05:39:32;1.10;99.90
36374;DHT22;22399;51.346;12.372;2023-02-15T05:42:00;1.00;99.90
36374;DHT22;22399;51.346;12.372;2023-02-15T05:44:29;1.00;99.90
36374;DHT22;22399;51.346;12.372;2023-02-15T05:46:58;1.00;99.90
36374;DHT22;22399;51.346;12.372;2023-02-15T05:49:27;0.90;99.90
36374;DHT22;22399;51.346;12.372;2023-02-15T05:51:55;0.90;99.90
36374;DHT22;22399;51.346;12.372;2023-02-15T05:54:24;0.90;99.90
36374;DHT22;22399;51.346;12.372;2023-02-15T05:56:52;0.90;99.90
36374;DHT22;22399;51.346;12.372;2023-02-15T05:59:21;0.90;99.90
36374;DHT22;22399;51.346;12.372;2023-02-15T06:01:49;0.80;99.90
36374;DHT22;22399;51.346;12.372;2023-02-15T06:04:18;0.80;99.90
36374;DHT22;22399;51.346;12.372;2023-02-15T06:06:47;0.80;99.90
36374;DHT22;22399;51.346;12.372;2023-02-15T06:09:16;0.80;99.90
36374;DHT22;22399;51.346;12.372;2023-02-15T06:11:45;0.80;99.90
36374;DHT22;22399;51.346;12.372;2023-02-15T06:14:14;0.80;99.90
36374;DHT22;22399;51.346;12.372;2023-02-15T06:16:42;0.80;99.90
36374;DHT22;22399;51.346;12.372;2023-02-15T06:19:10;0.80;99.90
36374;DHT22;22399;51.346;12.372;2023-02-15T06:21:40;0.80;99.90
36374;DHT22;22399;51.346;12.372;2023-02-15T06:24:08;0.90;99.90
36374;DHT22;22399;51.346;12.372;2023-02-15T06:26:37;0.90;99.90
36374;DHT22;22399;51.346;12.372;2023-02-15T06:29:05;0.90;99.90
36374;DHT22;22399;51.346;12.372;2023-02-15T06:31:33;0.90;99.90
36374;DHT22;22399;51.346;12.372;2023-02-15T06:34:02;0.90;99.90
36374;DHT22;22399;51.346;12.372;2023-02-15T06:36:31;0.90;99.90
36374;DHT22;22399;51.346;12.372;2023-02-15T06:39:01;0.90;99.90
36374;DHT22;22399;51.346;12.372;2023-02-15T06:41:30;0.90;99.90
36374;DHT22;22399;51.346;12.372;2023-02-15T06:43:58;0.90;99.90
36374;DHT22;22399;51.346;12.372;2023-02-15T06:46:27;0.90;99.90
36374;DHT22;22399;51.346;12.372;2023-02-15T06:48:55;0.90;99.90
36374;DHT22;22399;51.346;12.372;2023-02-15T06:51:23;1.00;99.90
36374;DHT22;22399;51.346;12.372;2023-02-15T06:53:52;1.00;99.90
36374;DHT22;22399;51.346;12.372;2023-02-15T06:56:22;1.00;99.90
36374;DHT22;22399;51.346;12.372;2023-02-15T06:58:50;1.10;99.90
36374;DHT22;22399;51.346;12.372;2023-02-15T07:01:19;1.10;99.90
36374;DHT22;22399;51.346;12.372;2023-02-15T07:03:48;1.10;99.90
36374;DHT22;22399;51.346;12.372;2023-02-15T07:06:16;1.10;99.90
36374;DHT22;22399;51.346;12.372;2023-02-15T07:08:44;1.10;99.90
36374;DHT22;22399;51.346;12.372;2023-02-15T07:11:13;1.10;99.90
36374;DHT22;22399;51.346;12.372;2023-02-15T07:14:00;1.20;99.90
36374;DHT22;22399;51.346;12.372;2023-02-15T07:16:28;1.30;99.90
36374;DHT22;22399;51.346;12.372;2023-02-15T07:18:56;1.30;99.90
36374;DHT22;22399;51.346;12.372;2023-02-15T07:21:25;1.40;99.90
36374;DHT22;22399;51.346;12.372;2023-02-15T07:23:56;1.50;99.90
36374;DHT22;22399;51.346;12.372;2023-02-15T07:26:24;1.60;99.90
36374;DHT22;22399;51.346;12.372;2023-02-15T07:28:53;1.70;99.90
36374;DHT22;22399;51.346;12.372;2023-02-15T07:31:22;1.90;99.90
36374;DHT22;22399;51.346;12.372;2023-02-15T07:33:50;2.00;99.90
36374;DHT22;22399;51.346;12.372;2023-02-15T07:36:19;2.10;99.90
36374;DHT22;22399;51.346;12.372;2023-02-15T07:38:47;2.20;99.90
36374;DHT22;22399;51.346;12.372;2023-02-15T07:41:15;2.40;99.90
36374;DHT22;22399;51.346;12.372;2023-02-15T07:43:45;2.50;99.90
36374;DHT22;22399;51.346;12.372;2023-02-15T07:46:14;2.80;99.90
36374;DHT22;22399;51.346;12.372;2023-02-15T07:48:45;3.30;99.90
36374;DHT22;22399;51.346;12.372;2023-02-15T07:51:13;3.70;99.90
36374;DHT22;22399;51.346;12.372;2023-02-15T07:53:43;4.10;99.90
36374;DHT22;22399;51.346;12.372;2023-02-15T07:56:12;4.40;99.90
36374;DHT22;22399;51.346;12.372;2023-02-15T07:58:41;4.70;99.90
36374;DHT22;22399;51.346;12.372;2023-02-15T08:01:24;5.00;99.90
36374;DHT22;22399;51.346;12.372;2023-02-15T08:03:54;5.20;99.90
36374;DHT22;22399;51.346;12.372;2023-02-15T08:06:25;5.50;99.90
36374;DHT22;22399;51.346;12.372;2023-02-15T08:08:54;5.80;99.90
36374;DHT22;22399;51.346;12.372;2023-02-15T08:11:23;5.90;99.90
36374;DHT22;22399;51.346;12.372;2023-02-15T08:14:02;6.00;99.90
36374;DHT22;22399;51.346;12.372;2023-02-15T08:16:33;6.10;99.90
36374;DHT22;22399;51.346;12.372;2023-02-15T08:19:04;6.20;99.90
36374;DHT22;22399;51.346;12.372;2023-02-15T08:21:34;6.40;99.90
36374;DHT22;22399;51.346;12.372;2023-02-15T08:24:04;6.50;99.90
36374;DHT22;22399;51.346;12.372;2023-02-15T08:26:33;6.60;99.90
36374;DHT22;22399;51.346;12.372;2023-02-15T08:29:02;6.60;99.90
36374;DHT22;22399;51.346;12.372;2023-02-15T08:31:31;6.80;99.90
36374;DHT22;22399;51.346;12.372;2023-02-15T08:34:00;6.80;99.90
36374;DHT22;22399;51.346;12.372;2023-02-15T08:36:31;6.90;99.40
36374;DHT22;22399;51.346;12.372;2023-02-15T08:39:01;6.90;99.50
36374;DHT22;22399;51.346;12.372;2023-02-15T08:41:31;7.10;99.30
36374;DHT22;22399;51.346;12.372;2023-02-15T08:44:03;7.20;99.10
36374;DHT22;22399;51.346;12.372;2023-02-15T08:46:33;7.40;99.10
36374;DHT22;22399;51.346;12.372;2023-02-15T08:49:02;7.70;99.40
36374;DHT22;22399;51.346;12.372;2023-02-15T08:51:33;8.00;99.00
36374;DHT22;22399;51.346;12.372;2023-02-15T08:54:03;8.10;98.50
36374;DHT22;22399;51.346;12.372;2023-02-15T08:56:35;8.40;98.10
36374;DHT22;22399;51.346;12.372;2023-02-15T08:59:05;8.50;97.50
36374;DHT22;22399;51.346;12.372;2023-02-15T09:01:34;8.70;97.50
36374;DHT22;22399;51.346;12.372;2023-02-15T09:04:05;9.00;97.50
36374;DHT22;22399;51.346;12.372;2023-02-15T09:06:37;9.10;96.50
36374;DHT22;22399;51.346;12.372;2023-02-15T09:09:07;9.00;96.20
36374;DHT22;22399;51.346;12.372;2023-02-15T09:11:37;8.90;95.40
36374;DHT22;22399;51.346;12.372;2023-02-15T09:14:08;8.80;95.40
36374;DHT22;22399;51.346;12.372;2023-02-15T09:16:38;8.80;95.60
36374;DHT22;22399;51.346;12.372;2023-02-15T09:19:07;9.00;95.60
36374;DHT22;22399;51.346;12.372;2023-02-15T09:21:37;9.10;95.40
36374;DHT22;22399;51.346;12.372;2023-02-15T09:24:07;9.30;95.20
36374;DHT22;22399;51.346;12.372;2023-02-15T09:26:45;9.30;94.80
36374;DHT22;22399;51.346;12.372;2023-02-15T09:29:14;9.50;94.60
36374;DHT22;22399;51.346;12.372;2023-02-15T09:31:44;9.50;94.30
36374;DHT22;22399;51.346;12.372;2023-02-15T09:34:15;9.60;93.80
36374;DHT22;22399;51.346;12.372;2023-02-15T09:36:54;9.70;93.80
36374;DHT22;22399;51.346;12.372;2023-02-15T09:39:24;9.80;93.40
36374;DHT22;22399;51.346;12.372;2023-02-15T09:45:16;10.20;92.90
36374;DHT22;22399;51.346;12.372;2023-02-15T09:47:57;10.30;91.90
36374;DHT22;22399;51.346;12.372;2023-02-15T09:50:36;10.40;91.50
36374;DHT22;22399;51.346;12.372;2023-02-15T09:53:24;10.50;91.60
36374;DHT22;22399;51.346;12.372;2023-02-15T09:56:02;10.70;91.60
36374;DHT22;22399;51.346;12.372;2023-02-15T09:58:40;10.70;90.60
36374;DHT22;22399;51.346;12.372;2023-02-15T10:01:17;10.70;90.40
36374;DHT22;22399;51.346;12.372;2023-02-15T10:03:59;10.80;90.30
36374;DHT22;22399;51.346;12.372;2023-02-15T10:06:37;11.10;90.60
36374;DHT22;22399;51.346;12.372;2023-02-15T10:09:38;11.20;90.50
36374;DHT22;22399;51.346;12.372;2023-02-15T10:12:27;11.50;90.40
36374;DHT22;22399;51.346;12.372;2023-02-15T10:15:11;11.60;90.00
36374;DHT22;22399;51.346;12.372;2023-02-15T10:17:54;11.80;89.50
36374;DHT22;22399;51.346;12.372;2023-02-15T10:20:32;11.90;88.00
36374;DHT22;22399;51.346;12.372;2023-02-15T10:23:16;12.00;87.60
36374;DHT22;22399;51.346;12.372;2023-02-15T10:25:53;11.90;87.20
36374;DHT22;22399;51.346;12.372;2023-02-15T10:28:26;12.20;87.40
36374;DHT22;22399;51.346;12.372;2023-02-15T10:31:00;12.10;86.10
36374;DHT22;22399;51.346;12.372;2023-02-15T10:33:38;11.90;85.00
36374;DHT22;22399;51.346;12.372;2023-02-15T10:36:11;11.70;84.40
36374;DHT22;22399;51.346;12.372;2023-02-15T10:38:47;11.50;82.70
36374;DHT22;22399;51.346;12.372;2023-02-15T10:41:29;11.20;82.70
36374;DHT22;22399;51.346;12.372;2023-02-15T10:44:13;11.30;83.70
36374;DHT22;22399;51.346;12.372;2023-02-15T10:47:10;11.40;84.10
36374;DHT22;22399;51.346;12.372;2023-02-15T10:50:13;11.60;84.30
36374;DHT22;22399;51.346;12.372;2023-02-15T10:52:54;11.60;82.90
36374;DHT22;22399;51.346;12.372;2023-02-15T10:55:31;11.70;82.80
36374;DHT22;22399;51.346;12.372;2023-02-15T10:58:09;11.70;82.20
36374;DHT22;22399;51.346;12.372;2023-02-15T11:00:43;11.90;82.40
36374;DHT22;22399;51.346;12.372;2023-02-15T11:03:27;12.10;82.10
36374;DHT22;22399;51.346;12.372;2023-02-15T11:06:03;12.20;81.50
36374;DHT22;22399;51.346;12.372;2023-02-15T11:08:36;12.30;81.30
36374;DHT22;22399;51.346;12.372;2023-02-15T11:11:07;12.40;80.60
36374;DHT22;22399;51.346;12.372;2023-02-15T11:13:41;12.60;80.20
36374;DHT22;22399;51.346;12.372;2023-02-15T11:16:14;12.60;79.50
36374;DHT22;22399;51.346;12.372;2023-02-15T11:18:49;12.70;79.80
36374;DHT22;22399;51.346;12.372;2023-02-15T11:21:22;13.00;79.00
36374;DHT22;22399;51.346;12.372;2023-02-15T11:23:51;12.90;77.90
36374;DHT22;22399;51.346;12.372;2023-02-15T11:26:26;12.90;78.00
36374;DHT22;22399;51.346;12.372;2023-02-15T11:29:00;13.30;78.80
36374;DHT22;22399;51.346;12.372;2023-02-15T11:31:37;13.40;77.40
36374;DHT22;22399;51.346;12.372;2023-02-15T11:34:18;13.50;77.40
36374;DHT22;22399;51.346;12.372;2023-02-15T11:36:54;13.50;76.30
36374;DHT22;22399;51.346;12.372;2023-02-15T11:39:26;13.40;76.20
36374;DHT22;22399;51.346;12.372;2023-02-15T11:42:04;13.20;76.00
36374;DHT22;22399;51.346;12.372;2023-02-15T11:44:39;13.10;75.60
36374;DHT22;22399;51.346;12.372;2023-02-15T11:47:11;13.20;76.30
36374;DHT22;22399;51.346;12.372;2023-02-15T11:49:39;13.40;76.30
36374;DHT22;22399;51.346;12.372;2023-02-15T11:52:15;13.10;75.00
36374;DHT22;22399;51.346;12.372;2023-02-15T11:54:58;12.90;75.40
36374;DHT22;22399;51.346;12.372;2023-02-15T11:57:31;12.80;75.70
36374;DHT22;22399;51.346;12.372;2023-02-15T12:00:05;12.70;75.30
36374;DHT22;22399;51.346;12.372;2023-02-15T12:02:37;12.80;74.80
36374;DHT22;22399;51.346;12.372;2023-02-15T12:05:10;12.90;75.30
36374;DHT22;22399;51.346;12.372;2023-02-15T12:07:43;13.10;75.10
36374;DHT22;22399;51.346;12.372;2023-02-15T12:10:19;13.10;74.90
36374;DHT22;22399;51.346;12.372;2023-02-15T12:13:09;13.30;74.80
36374;DHT22;22399;51.346;12.372;2023-02-15T12:15:41;13.10;74.30
36374;DHT22;22399;51.346;12.372;2023-02-15T12:18:33;13.00;75.60
36374;DHT22;22399;51.346;12.372;2023-02-15T12:21:07;13.30;75.30
36374;DHT22;22399;51.346;12.372;2023-02-15T12:23:48;13.50;74.80
36374;DHT22;22399;51.346;12.372;2023-02-15T12:26:24;13.70;74.70
36374;DHT22;22399;51.346;12.372;2023-02-15T12:28:53;13.50;74.20
36374;DHT22;22399;51.346;12.372;2023-02-15T12:31:28;13.60;74.10
36374;DHT22;22399;51.346;12.372;2023-02-15T12:34:01;13.60;74.00
36374;DHT22;22399;51.346;12.372;2023-02-15T12:36:40;13.60;74.00
36374;DHT22;22399;51.346;12.372;2023-02-15T12:39:19;13.60;73.80
36374;DHT22;22399;51.346;12.372;2023-02-15T12:42:02;13.70;74.10
36374;DHT22;22399;51.346;12.372;2023-02-15T12:44:33;13.90;73.20
36374;DHT22;22399;51.346;12.372;2023-02-15T12:47:10;13.90;72.50
36374;DHT22;22399;51.346;12.372;2023-02-15T12:50:04;13.90;72.70
36374;DHT22;22399;51.346;12.372;2023-02-15T12:52:38;13.80;72.70
36374;DHT22;22399;51.346;12.372;2023-02-15T12:55:11;13.60;71.80
36374;DHT22;22399;51.346;12.372;2023-02-15T12:57:45;13.70;72.60
36374;DHT22;22399;51.346;12.372;2023-02-15T13:00:29;13.70;71.80
36374;DHT22;22399;51.346;12.372;2023-02-15T13:03:00;13.70;72.20
36374;DHT22;22399;51.346;12.372;2023-02-15T13:05:32;13.80;71.60
36374;DHT22;22399;51.346;12.372;2023-02-15T13:08:08;13.80;71.30
36374;DHT22;22399;51.346;12.372;2023-02-15T13:10:41;13.90;70.80
36374;DHT22;22399;51.346;12.372;2023-02-15T13:13:19;14.00;70.70
36374;DHT22;22399;51.346;12.372;2023-02-15T13:15:49;13.90;70.00
36374;DHT22;22399;51.346;12.372;2023-02-15T13:18:34;13.90;68.80
36374;DHT22;22399;51.346;12.372;2023-02-15T13:21:09;13.90;69.10
36374;DHT22;22399;51.346;12.372;2023-02-15T13:23:44;13.80;68.00
36374;DHT22;22399;51.346;12.372;2023-02-15T13:26:18;13.70;67.80
36374;DHT22;22399;51.346;12.372;2023-02-15T13:28:49;13.80;68.10
36374;DHT22;22399;51.346;12.372;2023-02-15T13:31:19;14.00;67.70
36374;DHT22;22399;51.346;12.372;2023-02-15T13:33:52;14.00;66.90
36374;DHT22;22399;51.346;12.372;2023-02-15T13:36:25;14.10;66.70
36374;DHT22;22399;51.346;12.372;2023-02-15T13:39:03;14.20;66.30
36374;DHT22;22399;51.346;12.372;2023-02-15T13:41:51;14.30;66.00
36374;DHT22;22399;51.346;12.372;2023-02-15T13:44:31;14.40;65.90
36374;DHT22;22399;51.346;12.372;2023-02-15T13:47:15;14.60;65.70
36374;DHT22;22399;51.346;12.372;2023-02-15T13:49:57;14.70;64.90
36374;DHT22;22399;51.346;12.372;2023-02-15T13:52:38;14.70;64.80
36374;DHT22;22399;51.346;12.372;2023-02-15T13:55:38;14.80;64.10
36374;DHT22;22399;51.346;12.372;2023-02-15T13:58:34;14.80;64.10
36374;DHT22;22399;51.346;12.372;2023-02-15T14:01:09;14.80;63.80
36374;DHT22;22399;51.346;12.372;2023-02-15T14:04:00;14.90;63.10
36374;DHT22;22399;51.346;12.372;2023-02-15T14:06:55;15.00;62.80
36374;DHT22;22399;51.346;12.372;2023-02-15T14:09:35;15.20;62.50
36374;DHT22;22399;51.346;12.372;2023-02-15T14:12:20;15.40;62.00
36374;DHT22;22399;51.346;12.372;2023-02-15T14:15:14;15.40;61.90
36374;DHT22;22399;51.346;12.372;2023-02-15T14:17:55;15.60;62.00
36374;DHT22;22399;51.346;12.372;2023-02-15T14:20:45;16.00;61.30
36374;DHT22;22399;51.346;12.372;2023-02-15T14:23:29;15.60;61.20
36374;DHT22;22399;51.346;12.372;2023-02-15T14:26:01;15.60;61.00
36374;DHT22;22399;51.346;12.372;2023-02-15T14:28:36;15.50;60.20
36374;DHT22;22399;51.346;12.372;2023-02-15T14:31:11;15.60;60.60
36374;DHT22;22399;51.346;12.372;2023-02-15T14:33:45;15.60;60.00
36374;DHT22;22399;51.346;12.372;2023-02-15T14:36:18;15.60;59.80
36374;DHT22;22399;51.346;12.372;2023-02-15T14:38:56;15.60;59.60
36374;DHT22;22399;51.346;12.372;2023-02-15T14:41:35;15.70;59.60
36374;DHT22;22399;51.346;12.372;2023-02-15T14:44:15;15.80;59.10
36374;DHT22;22399;51.346;12.372;2023-02-15T14:46:52;15.60;58.60
36374;DHT22;22399;51.346;12.372;2023-02-15T14:49:25;15.70;58.60
36374;DHT22;22399;51.346;12.372;2023-02-15T14:51:56;15.90;58.50
36374;DHT22;22399;51.346;12.372;2023-02-15T14:54:58;15.90;58.00
36374;DHT22;22399;51.346;12.372;2023-02-15T14:57:29;15.70;57.90
36374;DHT22;22399;51.346;12.372;2023-02-15T15:00:34;15.60;57.80
36374;DHT22;22399;51.346;12.372;2023-02-15T15:03:12;15.60;57.90
36374;DHT22;22399;51.346;12.372;2023-02-15T15:05:52;15.50;57.80
36374;DHT22;22399;51.346;12.372;2023-02-15T15:08:31;15.00;58.00
36374;DHT22;22399;51.346;12.372;2023-02-15T15:14:40;13.60;60.30
36374;DHT22;22399;51.346;12.372;2023-02-15T15:17:13;13.00;61.20
36374;DHT22;22399;51.346;12.372;2023-02-15T15:20:10;12.70;61.60
36374;DHT22;22399;51.346;12.372;2023-02-15T15:22:41;12.40;61.90
36374;DHT22;22399;51.346;12.372;2023-02-15T15:25:12;12.20;62.40
36374;DHT22;22399;51.346;12.372;2023-02-15T15:28:01;12.00;62.70
36374;DHT22;22399;51.346;12.372;2023-02-15T15:30:59;11.90;63.00
36374;DHT22;22399;51.346;12.372;2023-02-15T15:37:25;11.60;63.60
36374;DHT22;22399;51.346;12.372;2023-02-15T15:43:55;11.30;64.20
36374;DHT22;22399;51.346;12.372;2023-02-15T15:46:56;11.20;64.40
36374;DHT22;22399;51.346;12.372;2023-02-15T15:49:31;11.00;64.70
36374;DHT22;22399;51.346;12.372;2023-02-15T15:52:00;11.00;65.00
36374;DHT22;22399;51.346;12.372;2023-02-15T15:54:30;10.90;65.20
36374;DHT22;22399;51.346;12.372;2023-02-15T15:57:02;10.80;65.50
36374;DHT22;22399;51.346;12.372;2023-02-15T15:59:34;10.70;65.70
36374;DHT22;22399;51.346;12.372;2023-02-15T16:02:06;10.60;65.90
36374;DHT22;22399;51.346;12.372;2023-02-15T16:04:37;10.60;66.20
36374;DHT22;22399;51.346;12.372;2023-02-15T16:07:23;10.50;66.40
36374;DHT22;22399;51.346;12.372;2023-02-15T16:09:57;10.40;66.60
36374;DHT22;22399;51.346;12.372;2023-02-15T16:12:27;10.40;67.00
36374;DHT22;22399;51.346;12.372;2023-02-15T16:14:58;10.30;67.10
36374;DHT22;22399;51.346;12.372;2023-02-15T16:17:30;10.30;67.20
36374;DHT22;22399;51.346;12.372;2023-02-15T16:20:03;10.20;67.30
36374;DHT22;22399;51.346;12.372;2023-02-15T16:22:33;10.10;67.60
36374;DHT22;22399;51.346;12.372;2023-02-15T16:28:06;10.00;67.90
36374;DHT22;22399;51.346;12.372;2023-02-15T16:30:37;9.90;68.20
36374;DHT22;22399;51.346;12.372;2023-02-15T16:33:08;9.80;68.40